createdAt,value
2022-09-28T00:02:00.450Z,56.51
2022-09-28T00:04:27.630Z,56.68
2022-09-28T00:06:54.303Z,56.42
2022-09-28T00:12:44.115Z,56.27
2022-09-28T00:15:10.883Z,56.53
2022-09-28T00:17:37.564Z,56.29
2022-09-28T00:20:05.608Z,56.39
2022-09-28T00:22:32.451Z,56.43
2022-09-28T00:24:59.152Z,56.85
2022-09-28T00:27:25.811Z,56.70
2022-09-28T00:29:52.575Z,56.60
2022-09-28T00:32:21.515Z,56.38
2022-09-28T00:34:48.993Z,56.78
2022-09-28T00:37:15.699Z,56.64
2022-09-28T00:39:43.475Z,56.55
2022-09-28T00:42:13.323Z,56.84
2022-09-28T00:45:02.291Z,56.36
2022-09-28T00:47:51.527Z,56.38
2022-09-28T00:50:21.530Z,56.70
2022-09-28T00:53:00.415Z,56.45
2022-09-28T00:55:32.605Z,56.47
2022-09-28T00:58:10.524Z,56.40
2022-09-28T01:00:41.033Z,56.36
2022-09-28T01:03:08.779Z,56.58
2022-09-28T01:05:36.035Z,56.80
2022-09-28T01:08:03.132Z,56.50
2022-09-28T01:10:31.079Z,56.75
2022-09-28T01:12:59.325Z,56.52
2022-09-28T01:15:28.012Z,56.55
2022-09-28T01:18:15.812Z,56.96
2022-09-28T01:20:53.334Z,56.66
2022-09-28T01:23:36.947Z,56.86
2022-09-28T01:26:44.576Z,56.95
2022-09-28T01:29:19.179Z,56.86
2022-09-28T01:31:53.078Z,56.71
2022-09-28T01:34:28.967Z,56.90
2022-09-28T01:36:56.838Z,56.88
2022-09-28T01:39:31.592Z,56.70
2022-09-28T01:42:03.864Z,56.97
2022-09-28T01:44:31.647Z,56.87
2022-09-28T01:47:03.644Z,57.03
2022-09-28T01:49:44.015Z,56.58
2022-09-28T01:52:27.971Z,56.88
2022-09-28T01:55:00.383Z,56.96
2022-09-28T01:57:49.306Z,56.66
2022-09-28T02:00:18.229Z,56.71
2022-09-28T02:02:59.105Z,56.78
2022-09-28T02:05:49.178Z,56.95
2022-09-28T02:08:27.005Z,56.88
2022-09-28T02:11:14.994Z,57.03
2022-09-28T02:13:44.524Z,56.52
2022-09-28T02:16:21.180Z,56.48
2022-09-28T02:18:49.619Z,56.69
2022-09-28T02:21:24.050Z,56.99
2022-09-28T02:24:02.591Z,56.70
2022-09-28T02:26:43.074Z,56.90
2022-09-28T02:29:09.915Z,56.52
2022-09-28T02:31:36.707Z,56.98
2022-09-28T02:34:03.528Z,56.70
2022-09-28T02:36:30.827Z,56.97
2022-09-28T02:38:58.331Z,56.64
2022-09-28T02:41:42.335Z,56.95
2022-09-28T02:44:32.089Z,57.21
2022-09-28T02:47:31.584Z,57.05
2022-09-28T02:50:04.366Z,56.96
2022-09-28T02:53:20.268Z,56.76
2022-09-28T02:55:49.867Z,56.62
2022-09-28T02:58:31.936Z,57.24
2022-09-28T03:01:14.245Z,57.00
2022-09-28T03:03:50.075Z,57.00
2022-09-28T03:06:37.610Z,56.89
2022-09-28T03:09:21.766Z,56.92
2022-09-28T03:11:55.776Z,57.16
2022-09-28T03:14:22.668Z,56.78
2022-09-28T03:16:53.214Z,56.70
2022-09-28T03:19:25.255Z,56.72
2022-09-28T03:21:52.132Z,57.14
2022-09-28T03:24:18.781Z,57.02
2022-09-28T03:26:45.506Z,56.96
2022-09-28T03:29:13.790Z,57.29
2022-09-28T03:31:41.658Z,57.12
2022-09-28T03:34:08.747Z,57.09
2022-09-28T03:36:35.547Z,56.88
2022-09-28T03:39:02.669Z,57.30
2022-09-28T03:41:29.506Z,56.89
2022-09-28T03:43:56.191Z,57.02
2022-09-28T03:46:25.320Z,56.88
2022-09-28T03:48:58.307Z,57.02
2022-09-28T03:51:26.205Z,57.05
2022-09-28T03:53:53.572Z,56.76
2022-09-28T03:56:20.869Z,56.96
2022-09-28T03:58:47.583Z,56.79
2022-09-28T04:01:18.548Z,57.13
2022-09-28T04:03:47.338Z,56.53
2022-09-28T04:06:14.210Z,56.65
2022-09-28T04:08:41.020Z,56.91
2022-09-28T04:11:08.605Z,56.93
2022-09-28T04:13:35.695Z,56.76
2022-09-28T04:16:05.111Z,56.82
2022-09-28T04:18:35.191Z,56.79
2022-09-28T04:21:10.814Z,56.87
2022-09-28T04:23:44.666Z,56.41
2022-09-28T04:26:22.498Z,56.89
2022-09-28T04:29:08.493Z,56.72
2022-09-28T04:31:50.012Z,56.58
2022-09-28T04:34:19.566Z,56.45
2022-09-28T04:36:46.950Z,56.74
2022-09-28T04:39:14.999Z,56.36
2022-09-28T04:41:44.583Z,56.60
2022-09-28T04:44:11.303Z,56.25
2022-09-28T04:46:38.102Z,56.21
2022-09-28T04:49:24.997Z,56.45
2022-09-28T04:52:18.350Z,56.32
2022-09-28T04:54:48.100Z,56.52
2022-09-28T04:57:14.840Z,56.59
2022-09-28T04:59:41.582Z,56.52
2022-09-28T05:02:08.336Z,56.41
2022-09-28T05:05:01.560Z,56.43
2022-09-28T05:07:59.089Z,56.22
2022-09-28T05:10:26.371Z,56.43
2022-09-28T05:12:53.312Z,56.59
2022-09-28T05:15:20.168Z,56.61
2022-09-28T05:17:47.968Z,56.61
2022-09-28T05:20:28.178Z,56.31
2022-09-28T05:22:55.175Z,56.33
2022-09-28T05:25:22.250Z,56.26
2022-09-28T05:28:22.698Z,56.58
2022-09-28T05:31:12.532Z,56.44
2022-09-28T05:33:53.720Z,56.58
2022-09-28T05:36:20.604Z,56.27
2022-09-28T05:38:47.269Z,56.18
2022-09-28T05:41:14.118Z,56.14
2022-09-28T05:43:40.898Z,55.95
2022-09-28T05:46:08.262Z,55.85
2022-09-28T05:48:38.859Z,55.94
2022-09-28T05:51:05.817Z,56.40
2022-09-28T05:53:32.475Z,56.42
2022-09-28T05:55:59.997Z,57.06
2022-09-28T05:58:28.366Z,57.02
2022-09-28T06:00:56.334Z,57.00
2022-09-28T06:03:23.640Z,57.33
2022-09-28T06:05:50.638Z,57.40
2022-09-28T06:08:17.871Z,57.09
2022-09-28T06:10:48.520Z,57.42
2022-09-28T06:13:15.390Z,57.38
2022-09-28T06:15:42.938Z,57.76
2022-09-28T06:18:16.650Z,57.80
2022-09-28T06:21:02.577Z,57.69
2022-09-28T06:23:35.496Z,57.79
2022-09-28T06:26:02.495Z,57.99
2022-09-28T06:28:30.470Z,57.67
2022-09-28T06:30:59.965Z,58.10
2022-09-28T06:33:27.655Z,57.95
2022-09-28T06:35:54.408Z,57.61
2022-09-28T06:38:21.203Z,58.07
2022-09-28T06:40:49.194Z,57.45
2022-09-28T06:43:16.139Z,57.65
2022-09-28T06:46:02.346Z,57.89
2022-09-28T06:48:33.497Z,57.27
2022-09-28T06:51:01.157Z,57.60
2022-09-28T06:53:32.567Z,57.51
2022-09-28T06:56:11.060Z,57.68
2022-09-28T06:58:37.884Z,57.37
2022-09-28T07:01:05.816Z,57.50
2022-09-28T07:03:47.612Z,57.81
2022-09-28T07:06:33.901Z,57.59
2022-09-28T07:09:32.303Z,58.02
2022-09-28T07:12:19.519Z,57.93
2022-09-28T07:14:57.357Z,57.78
2022-09-28T07:17:26.673Z,57.86
2022-09-28T07:20:00.767Z,57.44
2022-09-28T07:22:40.620Z,57.33
2022-09-28T07:25:09.431Z,57.41
2022-09-28T07:28:03.392Z,57.25
2022-09-28T07:30:50.133Z,57.35
2022-09-28T07:33:39.900Z,57.03
2022-09-28T07:36:29.919Z,57.54
2022-09-28T07:38:57.735Z,57.09
2022-09-28T07:41:32.661Z,56.78
2022-09-28T07:44:08.267Z,56.79
2022-09-28T07:46:37.141Z,56.49
2022-09-28T07:49:11.612Z,56.62
2022-09-28T07:52:14.775Z,57.09
2022-09-28T07:55:07.280Z,57.03
2022-09-28T07:58:03.279Z,56.62
2022-09-28T08:01:10.718Z,56.93
2022-09-28T08:03:39.465Z,56.31
2022-09-28T08:06:09.844Z,56.52
2022-09-28T08:08:37.925Z,56.76
2022-09-28T08:11:07.306Z,56.71
2022-09-28T08:13:46.462Z,56.27
2022-09-28T08:16:35.100Z,56.32
2022-09-28T08:19:11.894Z,56.59
2022-09-28T08:21:47.471Z,56.47
2022-09-28T08:24:15.700Z,56.53
2022-09-28T08:26:43.538Z,56.27
2022-09-28T08:29:11.719Z,56.30
2022-09-28T08:31:48.303Z,56.24
2022-09-28T08:34:28.137Z,56.52
2022-09-28T08:37:15.063Z,56.09
2022-09-28T08:40:00.952Z,55.70
2022-09-28T08:42:40.921Z,56.18
2022-09-28T08:45:35.977Z,56.12
2022-09-28T08:49:06.623Z,56.13
2022-09-28T08:52:13.775Z,55.42
2022-09-28T08:55:00.849Z,55.36
2022-09-28T08:57:49.661Z,55.33
2022-09-28T09:00:31.056Z,55.54
2022-09-28T09:02:58.176Z,55.42
2022-09-28T09:05:51.999Z,55.94
2022-09-28T09:09:00.086Z,55.96
2022-09-28T09:11:51.564Z,55.58
2022-09-28T09:14:34.444Z,55.75
2022-09-28T09:17:19.036Z,55.53
2022-09-28T09:20:20.550Z,56.04
2022-09-28T09:22:58.911Z,55.49
2022-09-28T09:25:40.221Z,55.49
2022-09-28T09:28:11.673Z,54.99
2022-09-28T09:31:13.276Z,54.88
2022-09-28T09:34:01.375Z,54.02
2022-09-28T09:37:05.428Z,53.76
2022-09-28T09:40:26.469Z,53.55
2022-09-28T09:43:31.773Z,53.86
2022-09-28T09:46:25.507Z,52.99
2022-09-28T09:49:25.169Z,53.33
2022-09-28T09:51:51.908Z,52.76
2022-09-28T09:54:21.550Z,52.47
2022-09-28T09:57:01.556Z,52.68
2022-09-28T09:59:48.423Z,52.03
2022-09-28T10:02:26.930Z,52.03
2022-09-28T10:05:07.556Z,51.96
2022-09-28T10:07:43.282Z,51.79
2022-09-28T10:10:32.245Z,51.69
2022-09-28T10:13:16.144Z,52.05
2022-09-28T10:15:47.517Z,51.06
2022-09-28T10:18:29.869Z,51.36
2022-09-28T10:21:17.828Z,51.99
2022-09-28T10:24:02.679Z,51.53
2022-09-28T10:26:36.253Z,51.72
2022-09-28T10:29:12.080Z,51.14
2022-09-28T10:31:40.171Z,51.91
2022-09-28T10:34:17.346Z,51.25
2022-09-28T10:37:04.079Z,51.33
2022-09-28T10:39:56.075Z,51.05
2022-09-28T10:42:30.538Z,50.77
2022-09-28T10:45:25.868Z,50.64
2022-09-28T10:47:52.646Z,50.25
2022-09-28T10:50:25.912Z,50.86
2022-09-28T10:53:10.542Z,50.77
2022-09-28T10:56:23.422Z,50.25
2022-09-28T10:59:02.592Z,50.26
2022-09-28T11:01:42.997Z,50.54
2022-09-28T11:04:20.980Z,50.51
2022-09-28T11:06:47.979Z,50.30
2022-09-28T11:09:45.469Z,50.48
2022-09-28T11:12:16.244Z,50.39
2022-09-28T11:14:44.276Z,50.48
2022-09-28T11:17:31.518Z,50.12
2022-09-28T11:20:00.688Z,50.21
2022-09-28T11:22:29.939Z,50.25
2022-09-28T11:25:24.128Z,50.40
2022-09-28T11:27:50.882Z,50.24
2022-09-28T11:30:24.335Z,50.53
2022-09-28T11:33:36.243Z,50.51
2022-09-28T11:36:42.229Z,50.21
2022-09-28T11:39:27.614Z,50.29
2022-09-28T11:42:11.001Z,49.60
2022-09-28T11:44:47.390Z,49.56
2022-09-28T11:47:36.563Z,49.39
2022-09-28T11:50:24.627Z,48.99
2022-09-28T11:53:09.812Z,49.32
2022-09-28T11:56:10.071Z,48.79
2022-09-28T11:58:44.058Z,48.63
2022-09-28T12:01:47.233Z,48.94
2022-09-28T12:04:34.113Z,49.06
2022-09-28T12:07:08.486Z,48.59
2022-09-28T12:09:46.871Z,48.88
2022-09-28T12:12:25.340Z,47.89
2022-09-28T12:14:57.472Z,48.39
2022-09-28T12:17:34.248Z,47.82
2022-09-28T12:20:14.703Z,47.79
2022-09-28T12:22:43.380Z,47.99
2022-09-28T12:25:14.522Z,47.56
2022-09-28T12:27:46.843Z,47.99
2022-09-28T12:30:20.841Z,48.70
2022-09-28T12:33:17.827Z,48.44
2022-09-28T12:35:47.475Z,47.98
2022-09-28T12:38:35.507Z,47.78
2022-09-28T12:41:23.791Z,48.08
2022-09-28T12:43:55.306Z,48.13
2022-09-28T12:46:46.566Z,48.15
2022-09-28T12:52:19.193Z,47.63
2022-09-28T12:55:01.215Z,47.53
2022-09-28T12:57:57.674Z,47.49
2022-09-28T13:00:29.243Z,47.21
2022-09-28T13:03:32.783Z,47.27
2022-09-28T13:06:14.247Z,47.22
2022-09-28T13:08:55.969Z,47.29
2022-09-28T13:11:38.104Z,47.00
2022-09-28T13:14:42.224Z,47.12
2022-09-28T13:17:27.903Z,46.82
2022-09-28T13:19:59.445Z,46.87
2022-09-28T13:22:39.948Z,47.15
2022-09-28T13:25:17.105Z,46.69
2022-09-28T13:27:52.800Z,46.66
2022-09-28T13:30:19.607Z,46.76
2022-09-28T13:32:47.767Z,46.82
2022-09-28T13:35:16.309Z,46.76
2022-09-28T13:37:43.115Z,46.76
2022-09-28T13:40:10.023Z,46.62
2022-09-28T13:42:46.342Z,46.66
2022-09-28T13:45:22.304Z,46.50
2022-09-28T13:48:11.887Z,46.86
2022-09-28T13:51:16.334Z,45.95
2022-09-28T13:53:43.076Z,46.11
2022-09-28T13:56:28.250Z,45.74
2022-09-28T13:59:16.837Z,45.62
2022-09-28T14:02:13.975Z,45.58
2022-09-28T14:05:01.043Z,45.54
2022-09-28T14:07:33.753Z,45.87
2022-09-28T14:10:19.335Z,45.71
2022-09-28T14:12:48.379Z,45.96
2022-09-28T14:15:40.372Z,45.94
2022-09-28T14:18:15.527Z,46.34
2022-09-28T14:20:50.907Z,45.73
2022-09-28T14:23:41.199Z,45.53
2022-09-28T14:26:20.982Z,45.73
2022-09-28T14:29:10.232Z,45.97
2022-09-28T14:31:42.367Z,45.91
2022-09-28T14:34:23.943Z,45.61
2022-09-28T14:37:09.423Z,45.64
2022-09-28T14:39:55.737Z,46.03
2022-09-28T14:42:25.153Z,45.51
2022-09-28T14:45:19.059Z,45.90
2022-09-28T14:48:43.229Z,45.40
2022-09-28T14:51:42.383Z,45.91
2022-09-28T14:54:10.693Z,45.61
2022-09-28T14:56:44.641Z,46.24
2022-09-28T14:59:16.955Z,46.61
2022-09-28T15:01:48.090Z,46.75
2022-09-28T15:04:15.296Z,46.05
2022-09-28T15:06:46.995Z,46.35
2022-09-28T15:09:47.856Z,46.38
2022-09-28T15:12:32.637Z,46.46
2022-09-28T15:14:59.345Z,46.47
2022-09-28T15:17:29.755Z,46.88
2022-09-28T15:20:03.133Z,47.26
2022-09-28T15:22:30.335Z,47.71
2022-09-28T15:25:02.452Z,47.78
2022-09-28T15:27:37.257Z,47.75
2022-09-28T15:30:18.947Z,47.16
2022-09-28T15:32:45.731Z,47.51
2022-09-28T15:35:17.175Z,47.67
2022-09-28T15:37:44.880Z,48.12
2022-09-28T15:40:16.797Z,48.32
2022-09-28T15:42:45.332Z,48.14
2022-09-28T15:45:14.862Z,48.26
2022-09-28T15:47:44.952Z,48.86
2022-09-28T15:50:24.104Z,48.72
2022-09-28T15:52:59.371Z,49.09
2022-09-28T15:55:32.907Z,49.58
2022-09-28T15:58:19.313Z,49.63
2022-09-28T16:00:47.484Z,50.13
2022-09-28T16:03:17.232Z,50.00
2022-09-28T16:06:06.562Z,50.22
2022-09-28T16:08:36.291Z,50.50
2022-09-28T16:11:24.270Z,50.55
2022-09-28T16:14:06.344Z,50.52
2022-09-28T16:16:41.172Z,51.44
2022-09-28T16:19:24.087Z,51.59
2022-09-28T16:21:59.917Z,52.02
2022-09-28T16:24:30.411Z,52.14
2022-09-28T16:26:58.536Z,52.28
2022-09-28T16:29:39.730Z,52.57
2022-09-28T16:32:25.008Z,52.77
2022-09-28T16:35:07.430Z,52.38
2022-09-28T16:37:34.368Z,52.75
2022-09-28T16:40:01.234Z,53.00
2022-09-28T16:42:28.315Z,53.07
2022-09-28T16:44:56.399Z,53.21
2022-09-28T16:47:23.667Z,53.78
2022-09-28T16:49:51.862Z,53.73
2022-09-28T16:52:38.844Z,54.03
2022-09-28T16:58:04.996Z,53.60
2022-09-28T17:00:31.906Z,53.98
2022-09-28T17:02:58.785Z,53.97
2022-09-28T17:05:25.618Z,53.81
2022-09-28T17:08:00.356Z,53.86
2022-09-28T17:11:12.596Z,53.56
2022-09-28T17:13:34.823Z,53.68
2022-09-28T17:16:06.240Z,54.06
2022-09-28T17:18:33.098Z,54.00
2022-09-28T17:21:04.340Z,53.91
2022-09-28T17:23:31.075Z,54.14
2022-09-28T17:25:59.150Z,54.23
2022-09-28T17:28:28.339Z,54.45
2022-09-28T17:30:55.069Z,54.03
2022-09-28T17:33:21.743Z,54.26
2022-09-28T17:35:49.597Z,54.39
2022-09-28T17:38:16.397Z,54.62
2022-09-28T17:40:44.049Z,54.41
2022-09-28T17:43:11.338Z,55.02
2022-09-28T17:45:41.711Z,55.10
2022-09-28T17:48:17.349Z,55.24
2022-09-28T17:50:46.639Z,55.55
2022-09-28T17:53:13.891Z,55.50
2022-09-28T17:55:40.962Z,55.09
2022-09-28T17:58:18.223Z,55.29
2022-09-28T18:00:50.791Z,55.56
2022-09-28T18:03:20.037Z,55.28
2022-09-28T18:05:49.705Z,54.94
2022-09-28T18:08:21.091Z,54.96
2022-09-28T18:10:47.902Z,54.97
2022-09-28T18:13:14.828Z,54.75
2022-09-28T18:15:42.365Z,54.63
2022-09-28T18:18:09.871Z,54.81
2022-09-28T18:20:37.135Z,54.93
2022-09-28T18:23:04.401Z,54.31
2022-09-28T18:25:31.432Z,54.61
2022-09-28T18:28:02.535Z,54.54
2022-09-28T18:30:29.432Z,54.06
2022-09-28T18:32:56.152Z,54.05
2022-09-28T18:35:23.467Z,54.29
2022-09-28T18:37:50.599Z,53.84
2022-09-28T18:40:17.529Z,54.24
2022-09-28T18:42:44.267Z,54.08
2022-09-28T18:45:11.502Z,54.07
2022-09-28T18:47:39.059Z,53.72
2022-09-28T18:50:06.622Z,53.88
2022-09-28T18:52:36.679Z,53.88
2022-09-28T18:55:04.258Z,53.50
2022-09-28T18:57:34.332Z,53.66
2022-09-28T19:00:05.009Z,53.41
2022-09-28T19:02:32.700Z,53.53
2022-09-28T19:04:59.432Z,53.62
2022-09-28T19:07:26.468Z,53.21
2022-09-28T19:09:57.385Z,53.16
2022-09-28T19:12:24.267Z,53.30
2022-09-28T19:14:50.979Z,53.39
2022-09-28T19:17:18.184Z,52.98
2022-09-28T19:19:45.153Z,53.32
2022-09-28T19:22:12.610Z,52.99
2022-09-28T19:24:39.257Z,52.96
2022-09-28T19:27:05.982Z,53.28
2022-09-28T19:29:32.652Z,53.11
2022-09-28T19:31:59.791Z,53.01
2022-09-28T19:34:30.122Z,53.14
2022-09-28T19:36:57.253Z,52.87
2022-09-28T19:39:23.999Z,52.54
2022-09-28T19:41:54.331Z,52.71
2022-09-28T19:44:25.453Z,52.86
2022-09-28T19:47:00.014Z,52.63
2022-09-28T19:49:27.805Z,52.85
2022-09-28T19:52:13.902Z,52.67
2022-09-28T19:54:57.924Z,52.92
2022-09-28T19:57:27.696Z,52.65
2022-09-28T19:59:59.251Z,52.79
2022-09-28T20:02:27.955Z,52.96
2022-09-28T20:04:54.649Z,52.59
2022-09-28T20:07:21.380Z,52.74
2022-09-28T20:09:48.084Z,52.75
2022-09-28T20:12:14.855Z,52.91
2022-09-28T20:14:41.973Z,53.10
2022-09-28T20:17:09.742Z,52.71
2022-09-28T20:19:36.387Z,52.69
2022-09-28T20:22:03.545Z,53.07
2022-09-28T20:24:32.102Z,52.67
2022-09-28T20:26:59.204Z,52.88
2022-09-28T20:29:26.786Z,52.73
2022-09-28T20:31:53.529Z,52.83
2022-09-28T20:34:20.434Z,53.03
2022-09-28T20:36:48.286Z,52.96
2022-09-28T20:39:15.293Z,53.17
2022-09-28T20:41:42.357Z,52.83
2022-09-28T20:44:09.882Z,53.19
2022-09-28T20:46:37.113Z,52.81
2022-09-28T20:49:05.490Z,53.16
2022-09-28T20:51:32.520Z,53.03
2022-09-28T20:54:00.196Z,53.07
2022-09-28T20:56:37.455Z,53.12
2022-09-28T20:59:08.356Z,53.22
2022-09-28T21:01:35.294Z,53.06
2022-09-28T21:04:04.204Z,52.98
2022-09-28T21:06:35.614Z,53.27
2022-09-28T21:09:02.638Z,53.29
2022-09-28T21:11:29.778Z,52.91
2022-09-28T21:13:58.611Z,52.95
2022-09-28T21:16:26.502Z,52.85
2022-09-28T21:18:53.652Z,52.92
2022-09-28T21:21:21.517Z,52.72
2022-09-28T21:23:52.457Z,52.94
2022-09-28T21:26:27.218Z,53.09
2022-09-28T21:28:55.543Z,52.75
2022-09-28T21:31:28.450Z,53.04
2022-09-28T21:33:59.132Z,52.99
2022-09-28T21:36:26.123Z,52.65
2022-09-28T21:38:55.080Z,52.70
2022-09-28T21:41:22.399Z,52.68
2022-09-28T21:43:49.030Z,52.92
2022-09-28T21:46:17.536Z,52.67
2022-09-28T21:48:44.526Z,52.89
2022-09-28T21:51:14.033Z,52.90
2022-09-28T21:53:40.907Z,52.53
2022-09-28T21:56:09.621Z,52.83
2022-09-28T21:58:36.739Z,52.90
2022-09-28T22:01:18.064Z,52.58
2022-09-28T22:03:54.069Z,52.83
2022-09-28T22:06:22.427Z,52.68
2022-09-28T22:08:49.580Z,52.61
2022-09-28T22:11:21.725Z,52.30
2022-09-28T22:13:50.629Z,52.73
2022-09-28T22:16:18.521Z,52.38
2022-09-28T22:18:46.022Z,52.12
2022-09-28T22:21:15.352Z,52.30
2022-09-28T22:23:42.106Z,52.24
2022-09-28T22:26:12.596Z,52.30
2022-09-28T22:28:44.204Z,52.28
2022-09-28T22:31:11.034Z,52.08
2022-09-28T22:33:37.771Z,51.98
2022-09-28T22:36:04.642Z,51.95
2022-09-28T22:38:32.157Z,51.99
2022-09-28T22:40:59.001Z,51.92
2022-09-28T22:43:26.555Z,52.25
2022-09-28T22:46:03.776Z,52.09
2022-09-28T22:48:30.963Z,52.05
2022-09-28T22:50:57.860Z,51.75
2022-09-28T22:53:24.846Z,51.69
2022-09-28T22:55:51.505Z,51.43
2022-09-28T22:58:18.183Z,51.47
2022-09-28T23:00:44.857Z,51.71
2022-09-28T23:03:11.684Z,51.41
2022-09-28T23:05:38.343Z,51.60
2022-09-28T23:08:05.066Z,51.63
2022-09-28T23:10:31.778Z,51.47
2022-09-28T23:12:58.852Z,51.46
2022-09-28T23:15:26.203Z,51.55
2022-09-28T23:17:53.332Z,51.29
2022-09-28T23:20:21.034Z,51.49
2022-09-28T23:22:48.412Z,51.37
2022-09-28T23:25:16.336Z,51.30
2022-09-28T23:27:49.929Z,51.30
2022-09-28T23:30:18.565Z,50.80
2022-09-28T23:32:45.712Z,51.04
2022-09-28T23:35:14.158Z,50.86
2022-09-28T23:37:40.795Z,50.82
2022-09-28T23:40:07.931Z,50.96
2022-09-28T23:42:35.529Z,50.81
2022-09-28T23:45:02.268Z,50.94
2022-09-28T23:47:28.871Z,51.05
2022-09-28T23:49:55.598Z,50.76
2022-09-28T23:52:22.803Z,50.86
2022-09-28T23:54:49.543Z,50.63
2022-09-28T23:57:16.239Z,50.58
2022-09-28T23:59:42.894Z,50.83
